sensor_id;sensor_type;location;lat;lon;timestamp;pressure;altitude;pressure_sealevel;temperature;humidity
36598;BME280;22607;49.550;11.940;2023-04-30T00:00:53;97130.06;;;11.35;100.00
36598;BME280;22607;49.550;11.940;2023-04-30T00:03:20;97129.06;;;11.27;100.00
36598;BME280;22607;49.550;11.940;2023-04-30T00:05:49;97133.50;;;11.35;100.00
36598;BME280;22607;49.550;11.940;2023-04-30T00:08:16;97134.16;;;11.37;100.00
36598;BME280;22607;49.550;11.940;2023-04-30T00:10:43;97140.09;;;11.39;100.00
36598;BME280;22607;49.550;11.940;2023-04-30T00:13:10;97132.09;;;11.16;100.00
36598;BME280;22607;49.550;11.940;2023-04-30T00:15:39;97126.94;;;11.31;100.00
36598;BME280;22607;49.550;11.940;2023-04-30T00:18:06;97139.94;;;11.33;100.00
36598;BME280;22607;49.550;11.940;2023-04-30T00:20:33;97145.38;;;11.23;100.00
36598;BME280;22607;49.550;11.940;2023-04-30T00:23:01;97147.53;;;11.19;100.00
36598;BME280;22607;49.550;11.940;2023-04-30T00:25:27;97147.31;;;11.29;100.00
36598;BME280;22607;49.550;11.940;2023-04-30T00:27:54;97156.72;;;11.23;100.00
36598;BME280;22607;49.550;11.940;2023-04-30T00:30:21;97147.16;;;11.31;100.00
36598;BME280;22607;49.550;11.940;2023-04-30T00:32:48;97136.00;;;11.28;100.00
36598;BME280;22607;49.550;11.940;2023-04-30T00:35:14;97142.75;;;11.23;100.00
36598;BME280;22607;49.550;11.940;2023-04-30T00:37:41;97132.56;;;11.20;100.00
36598;BME280;22607;49.550;11.940;2023-04-30T00:40:08;97126.84;;;10.99;100.00
36598;BME280;22607;49.550;11.940;2023-04-30T00:42:35;97141.97;;;11.06;100.00
36598;BME280;22607;49.550;11.940;2023-04-30T00:45:01;97142.50;;;10.93;100.00
36598;BME280;22607;49.550;11.940;2023-04-30T00:47:28;97134.78;;;10.91;100.00
36598;BME280;22607;49.550;11.940;2023-04-30T00:49:54;97141.28;;;11.12;100.00
36598;BME280;22607;49.550;11.940;2023-04-30T00:52:21;97146.06;;;11.16;100.00
36598;BME280;22607;49.550;11.940;2023-04-30T00:54:48;97162.53;;;10.94;100.00
36598;BME280;22607;49.550;11.940;2023-04-30T00:57:16;97142.31;;;10.94;100.00
36598;BME280;22607;49.550;11.940;2023-04-30T00:59:43;97152.84;;;10.86;100.00
36598;BME280;22607;49.550;11.940;2023-04-30T01:02:11;97159.38;;;10.90;100.00
36598;BME280;22607;49.550;11.940;2023-04-30T01:04:38;97160.41;;;10.72;100.00
36598;BME280;22607;49.550;11.940;2023-04-30T01:07:05;97163.84;;;10.89;100.00
36598;BME280;22607;49.550;11.940;2023-04-30T01:09:32;97165.63;;;10.97;100.00
36598;BME280;22607;49.550;11.940;2023-04-30T01:12:17;97169.41;;;11.03;100.00
36598;BME280;22607;49.550;11.940;2023-04-30T01:17:27;97162.69;;;10.75;100.00
36598;BME280;22607;49.550;11.940;2023-04-30T01:19:57;97162.53;;;10.85;100.00
36598;BME280;22607;49.550;11.940;2023-04-30T01:30:25;97177.13;;;10.96;100.00
36598;BME280;22607;49.550;11.940;2023-04-30T01:32:52;97172.03;;;10.95;100.00
36598;BME280;22607;49.550;11.940;2023-04-30T01:35:19;97176.13;;;11.06;100.00
36598;BME280;22607;49.550;11.940;2023-04-30T01:37:59;97175.81;;;10.92;100.00
36598;BME280;22607;49.550;11.940;2023-04-30T01:41:09;97184.69;;;10.83;100.00
36598;BME280;22607;49.550;11.940;2023-04-30T01:46:28;97190.91;;;10.57;100.00
36598;BME280;22607;49.550;11.940;2023-04-30T01:49:22;97187.66;;;10.63;100.00
36598;BME280;22607;49.550;11.940;2023-04-30T01:51:58;97187.50;;;10.81;100.00
36598;BME280;22607;49.550;11.940;2023-04-30T01:54:54;97192.91;;;10.96;100.00
36598;BME280;22607;49.550;11.940;2023-04-30T01:57:28;97193.75;;;10.88;100.00
36598;BME280;22607;49.550;11.940;2023-04-30T01:59:58;97194.56;;;10.72;100.00
36598;BME280;22607;49.550;11.940;2023-04-30T02:02:25;97200.44;;;10.66;100.00
36598;BME280;22607;49.550;11.940;2023-04-30T02:04:51;97200.47;;;10.74;100.00
36598;BME280;22607;49.550;11.940;2023-04-30T02:07:31;97196.66;;;10.69;100.00
36598;BME280;22607;49.550;11.940;2023-04-30T02:10:04;97196.66;;;10.69;100.00
36598;BME280;22607;49.550;11.940;2023-04-30T02:12:31;97203.91;;;10.58;100.00
36598;BME280;22607;49.550;11.940;2023-04-30T02:14:57;97186.50;;;10.49;100.00
36598;BME280;22607;49.550;11.940;2023-04-30T02:17:24;97192.84;;;10.38;100.00
36598;BME280;22607;49.550;11.940;2023-04-30T02:19:51;97202.03;;;10.42;100.00
36598;BME280;22607;49.550;11.940;2023-04-30T02:22:17;97193.81;;;10.29;100.00
36598;BME280;22607;49.550;11.940;2023-04-30T02:24:44;97205.66;;;10.41;100.00
36598;BME280;22607;49.550;11.940;2023-04-30T02:27:11;97196.63;;;10.35;100.00
36598;BME280;22607;49.550;11.940;2023-04-30T02:29:38;97215.16;;;10.42;100.00
36598;BME280;22607;49.550;11.940;2023-04-30T02:32:05;97207.16;;;10.44;100.00
36598;BME280;22607;49.550;11.940;2023-04-30T02:34:31;97206.97;;;10.37;100.00
36598;BME280;22607;49.550;11.940;2023-04-30T02:36:58;97217.16;;;10.40;100.00
36598;BME280;22607;49.550;11.940;2023-04-30T02:39:24;97220.41;;;10.42;100.00
36598;BME280;22607;49.550;11.940;2023-04-30T02:41:51;97207.28;;;10.34;100.00
36598;BME280;22607;49.550;11.940;2023-04-30T02:44:17;97215.31;;;10.41;100.00
36598;BME280;22607;49.550;11.940;2023-04-30T02:46:44;97219.09;;;10.21;100.00
36598;BME280;22607;49.550;11.940;2023-04-30T02:49:11;97212.53;;;10.42;100.00
36598;BME280;22607;49.550;11.940;2023-04-30T02:51:38;97218.03;;;10.57;100.00
36598;BME280;22607;49.550;11.940;2023-04-30T02:54:05;97202.72;;;10.53;100.00
36598;BME280;22607;49.550;11.940;2023-04-30T02:56:32;97222.44;;;10.57;100.00
36598;BME280;22607;49.550;11.940;2023-04-30T02:58:58;97213.75;;;10.48;100.00
36598;BME280;22607;49.550;11.940;2023-04-30T03:01:25;97216.31;;;10.40;100.00
36598;BME280;22607;49.550;11.940;2023-04-30T03:03:51;97218.75;;;10.33;100.00
36598;BME280;22607;49.550;11.940;2023-04-30T03:06:18;97220.09;;;10.37;100.00
36598;BME280;22607;49.550;11.940;2023-04-30T03:08:45;97224.16;;;10.31;100.00
36598;BME280;22607;49.550;11.940;2023-04-30T03:11:11;97223.34;;;10.22;100.00
36598;BME280;22607;49.550;11.940;2023-04-30T03:13:38;97229.25;;;10.24;100.00
36598;BME280;22607;49.550;11.940;2023-04-30T03:16:04;97227.94;;;10.20;100.00
36598;BME280;22607;49.550;11.940;2023-04-30T03:18:38;97236.28;;;10.16;100.00
36598;BME280;22607;49.550;11.940;2023-04-30T03:21:04;97233.31;;;10.10;100.00
36598;BME280;22607;49.550;11.940;2023-04-30T03:23:31;97236.44;;;10.14;100.00
36598;BME280;22607;49.550;11.940;2023-04-30T03:25:57;97227.94;;;10.20;100.00
36598;BME280;22607;49.550;11.940;2023-04-30T03:28:24;97227.59;;;10.23;100.00
36598;BME280;22607;49.550;11.940;2023-04-30T03:30:51;97229.59;;;10.21;100.00
36598;BME280;22607;49.550;11.940;2023-04-30T03:33:18;97232.53;;;10.18;100.00
36598;BME280;22607;49.550;11.940;2023-04-30T03:35:45;97233.19;;;10.29;100.00
36598;BME280;22607;49.550;11.940;2023-04-30T03:38:12;97233.34;;;10.27;100.00
36598;BME280;22607;49.550;11.940;2023-04-30T03:40:39;97226.09;;;10.13;100.00
36598;BME280;22607;49.550;11.940;2023-04-30T03:43:05;97234.16;;;10.19;100.00
36598;BME280;22607;49.550;11.940;2023-04-30T03:45:32;97235.78;;;10.12;100.00
36598;BME280;22607;49.550;11.940;2023-04-30T03:47:58;97234.75;;;10.05;100.00
36598;BME280;22607;49.550;11.940;2023-04-30T03:50:25;97230.00;;;10.00;100.00
36598;BME280;22607;49.550;11.940;2023-04-30T03:52:52;97237.06;;;10.00;100.00
36598;BME280;22607;49.550;11.940;2023-04-30T03:55:18;97236.34;;;9.89;100.00
36598;BME280;22607;49.550;11.940;2023-04-30T03:57:45;97238.53;;;10.02;100.00
36598;BME280;22607;49.550;11.940;2023-04-30T04:00:12;97230.97;;;9.99;100.00
36598;BME280;22607;49.550;11.940;2023-04-30T04:02:39;97231.31;;;9.96;100.00
36598;BME280;22607;49.550;11.940;2023-04-30T04:05:06;97228.19;;;10.01;100.00
36598;BME280;22607;49.550;11.940;2023-04-30T04:07:33;97232.09;;;9.96;100.00
36598;BME280;22607;49.550;11.940;2023-04-30T04:09:59;97227.88;;;10.04;100.00
36598;BME280;22607;49.550;11.940;2023-04-30T04:12:26;97233.78;;;9.97;100.00
36598;BME280;22607;49.550;11.940;2023-04-30T04:14:53;97234.56;;;9.98;100.00
36598;BME280;22607;49.550;11.940;2023-04-30T04:17:20;97236.06;;;10.01;100.00
36598;BME280;22607;49.550;11.940;2023-04-30T04:19:46;97235.09;;;10.02;100.00
36598;BME280;22607;49.550;11.940;2023-04-30T04:22:13;97242.94;;;9.93;100.00
36598;BME280;22607;49.550;11.940;2023-04-30T04:24:39;97242.34;;;10.08;100.00
36598;BME280;22607;49.550;11.940;2023-04-30T04:27:06;97238.25;;;10.14;100.00
36598;BME280;22607;49.550;11.940;2023-04-30T04:29:33;97241.16;;;10.02;100.00
36598;BME280;22607;49.550;11.940;2023-04-30T04:32:01;97249.06;;;10.10;100.00
36598;BME280;22607;49.550;11.940;2023-04-30T04:34:30;97238.72;;;10.09;100.00
36598;BME280;22607;49.550;11.940;2023-04-30T04:36:56;97247.28;;;10.11;100.00
36598;BME280;22607;49.550;11.940;2023-04-30T04:39:24;97256.97;;;10.19;100.00
36598;BME280;22607;49.550;11.940;2023-04-30T04:41:50;97262.34;;;10.09;100.00
36598;BME280;22607;49.550;11.940;2023-04-30T04:44:17;97248.06;;;10.11;100.00
36598;BME280;22607;49.550;11.940;2023-04-30T04:46:43;97259.59;;;10.27;100.00
36598;BME280;22607;49.550;11.940;2023-04-30T04:49:11;97264.72;;;10.37;100.00
36598;BME280;22607;49.550;11.940;2023-04-30T04:51:38;97263.88;;;10.36;100.00
36598;BME280;22607;49.550;11.940;2023-04-30T04:54:05;97255.38;;;10.34;100.00
36598;BME280;22607;49.550;11.940;2023-04-30T04:56:31;97257.19;;;10.42;100.00
36598;BME280;22607;49.550;11.940;2023-04-30T04:58:58;97253.97;;;10.57;100.00
36598;BME280;22607;49.550;11.940;2023-04-30T05:01:24;97256.75;;;10.63;100.00
36598;BME280;22607;49.550;11.940;2023-04-30T05:03:51;97264.66;;;10.72;100.00
36598;BME280;22607;49.550;11.940;2023-04-30T05:06:19;97253.66;;;10.68;100.00
36598;BME280;22607;49.550;11.940;2023-04-30T05:08:46;97256.78;;;10.80;100.00
36598;BME280;22607;49.550;11.940;2023-04-30T05:11:12;97254.19;;;10.88;100.00
36598;BME280;22607;49.550;11.940;2023-04-30T05:13:41;97254.34;;;10.95;100.00
36598;BME280;22607;49.550;11.940;2023-04-30T05:16:07;97263.19;;;11.11;100.00
36598;BME280;22607;49.550;11.940;2023-04-30T05:18:34;97263.53;;;11.24;100.00
36598;BME280;22607;49.550;11.940;2023-04-30T05:21:00;97256.28;;;11.26;100.00
36598;BME280;22607;49.550;11.940;2023-04-30T05:23:27;97257.25;;;11.42;100.00
36598;BME280;22607;49.550;11.940;2023-04-30T05:25:53;97258.69;;;11.53;100.00
36598;BME280;22607;49.550;11.940;2023-04-30T05:28:20;97268.34;;;11.77;100.00
36598;BME280;22607;49.550;11.940;2023-04-30T05:30:47;97255.03;;;11.79;100.00
36598;BME280;22607;49.550;11.940;2023-04-30T05:33:13;97265.28;;;12.14;99.52
36598;BME280;22607;49.550;11.940;2023-04-30T05:35:40;97257.88;;;12.72;94.68
36598;BME280;22607;49.550;11.940;2023-04-30T05:38:08;97259.41;;;13.82;82.66
36598;BME280;22607;49.550;11.940;2023-04-30T05:40:34;97259.66;;;13.19;81.82
36598;BME280;22607;49.550;11.940;2023-04-30T05:43:01;97254.66;;;14.08;77.18
36598;BME280;22607;49.550;11.940;2023-04-30T05:45:27;97252.19;;;14.06;75.66
36598;BME280;22607;49.550;11.940;2023-04-30T05:47:54;97249.00;;;14.11;73.48
36598;BME280;22607;49.550;11.940;2023-04-30T05:50:21;97254.59;;;15.25;68.29
36598;BME280;22607;49.550;11.940;2023-04-30T05:52:47;97257.53;;;15.66;66.20
36598;BME280;22607;49.550;11.940;2023-04-30T05:55:14;97262.53;;;16.24;63.62
36598;BME280;22607;49.550;11.940;2023-04-30T05:57:40;97255.34;;;16.05;62.48
36598;BME280;22607;49.550;11.940;2023-04-30T06:00:07;97256.28;;;16.39;61.87
36598;BME280;22607;49.550;11.940;2023-04-30T06:02:34;97260.44;;;16.75;61.45
36598;BME280;22607;49.550;11.940;2023-04-30T06:05:01;97266.06;;;16.45;59.38
36598;BME280;22607;49.550;11.940;2023-04-30T06:07:28;97256.31;;;16.52;59.67
36598;BME280;22607;49.550;11.940;2023-04-30T06:09:55;97251.88;;;16.11;60.05
36598;BME280;22607;49.550;11.940;2023-04-30T06:12:22;97267.13;;;16.51;59.32
36598;BME280;22607;49.550;11.940;2023-04-30T06:14:49;97269.00;;;16.71;58.48
36598;BME280;22607;49.550;11.940;2023-04-30T06:17:15;97269.44;;;16.74;57.56
36598;BME280;22607;49.550;11.940;2023-04-30T06:19:42;97261.69;;;16.86;56.43
36598;BME280;22607;49.550;11.940;2023-04-30T06:22:09;97261.06;;;16.98;57.37
36598;BME280;22607;49.550;11.940;2023-04-30T06:24:36;97261.47;;;17.69;56.84
36598;BME280;22607;49.550;11.940;2023-04-30T06:27:02;97264.53;;;17.79;54.67
36598;BME280;22607;49.550;11.940;2023-04-30T06:29:29;97266.28;;;18.06;54.87
36598;BME280;22607;49.550;11.940;2023-04-30T06:31:56;97266.28;;;18.13;53.66
36598;BME280;22607;49.550;11.940;2023-04-30T06:34:22;97265.06;;;18.08;53.63
36598;BME280;22607;49.550;11.940;2023-04-30T06:36:49;97268.78;;;17.94;53.81
36598;BME280;22607;49.550;11.940;2023-04-30T06:39:16;97263.09;;;17.77;53.35
36598;BME280;22607;49.550;11.940;2023-04-30T06:41:42;97269.41;;;17.96;51.63
36598;BME280;22607;49.550;11.940;2023-04-30T06:44:09;97265.09;;;17.88;51.23
36598;BME280;22607;49.550;11.940;2023-04-30T06:46:36;97260.25;;;17.65;50.99
36598;BME280;22607;49.550;11.940;2023-04-30T06:49:03;97260.09;;;17.46;51.37
36598;BME280;22607;49.550;11.940;2023-04-30T06:51:29;97268.19;;;16.70;53.02
36598;BME280;22607;49.550;11.940;2023-04-30T06:53:56;97257.94;;;16.53;53.48
36598;BME280;22607;49.550;11.940;2023-04-30T06:56:22;97249.56;;;15.59;56.67
36598;BME280;22607;49.550;11.940;2023-04-30T06:58:51;97261.34;;;16.27;55.32
36598;BME280;22607;49.550;11.940;2023-04-30T07:01:17;97277.03;;;15.93;57.62
36598;BME280;22607;49.550;11.940;2023-04-30T07:03:44;97278.53;;;16.51;55.84
36598;BME280;22607;49.550;11.940;2023-04-30T07:06:11;97272.97;;;17.42;53.40
36598;BME280;22607;49.550;11.940;2023-04-30T07:08:37;97258.19;;;17.67;53.19
36598;BME280;22607;49.550;11.940;2023-04-30T07:11:06;97268.50;;;18.22;50.27
36598;BME280;22607;49.550;11.940;2023-04-30T07:13:33;97257.50;;;18.12;50.87
36598;BME280;22607;49.550;11.940;2023-04-30T07:15:59;97262.81;;;18.58;52.02
36598;BME280;22607;49.550;11.940;2023-04-30T07:18:26;97265.84;;;19.00;50.78
36598;BME280;22607;49.550;11.940;2023-04-30T07:20:52;97262.00;;;19.22;49.03
36598;BME280;22607;49.550;11.940;2023-04-30T07:23:19;97258.78;;;19.13;48.32
36598;BME280;22607;49.550;11.940;2023-04-30T07:25:47;97260.31;;;18.95;47.76
36598;BME280;22607;49.550;11.940;2023-04-30T07:28:14;97253.00;;;19.23;47.74
36598;BME280;22607;49.550;11.940;2023-04-30T07:30:40;97252.47;;;19.07;46.57
36598;BME280;22607;49.550;11.940;2023-04-30T07:33:07;97256.06;;;18.87;47.31
36598;BME280;22607;49.550;11.940;2023-04-30T07:35:35;97261.19;;;19.21;47.75
36598;BME280;22607;49.550;11.940;2023-04-30T07:38:02;97257.72;;;18.56;47.63
36598;BME280;22607;49.550;11.940;2023-04-30T07:40:30;97256.13;;;18.42;47.54
36598;BME280;22607;49.550;11.940;2023-04-30T07:43:02;97266.31;;;18.91;47.50
36598;BME280;22607;49.550;11.940;2023-04-30T07:45:30;97263.81;;;18.96;46.95
36598;BME280;22607;49.550;11.940;2023-04-30T07:47:57;97263.72;;;18.77;45.53
36598;BME280;22607;49.550;11.940;2023-04-30T07:50:24;97266.28;;;17.99;46.30
36598;BME280;22607;49.550;11.940;2023-04-30T07:52:50;97274.50;;;18.50;46.66
36598;BME280;22607;49.550;11.940;2023-04-30T07:55:17;97262.81;;;18.19;47.61
36598;BME280;22607;49.550;11.940;2023-04-30T07:57:44;97262.56;;;18.20;46.14
36598;BME280;22607;49.550;11.940;2023-04-30T08:00:11;97260.78;;;18.53;46.27
36598;BME280;22607;49.550;11.940;2023-04-30T08:02:39;97265.91;;;18.55;46.20
36598;BME280;22607;49.550;11.940;2023-04-30T08:05:06;97261.72;;;18.98;47.94
36598;BME280;22607;49.550;11.940;2023-04-30T08:07:33;97269.72;;;18.98;46.07
36598;BME280;22607;49.550;11.940;2023-04-30T08:09:59;97260.81;;;19.43;45.33
36598;BME280;22607;49.550;11.940;2023-04-30T08:12:26;97264.16;;;19.06;46.35
36598;BME280;22607;49.550;11.940;2023-04-30T08:15:01;97263.63;;;19.48;46.03
36598;BME280;22607;49.550;11.940;2023-04-30T08:17:27;97254.06;;;19.85;46.36
36598;BME280;22607;49.550;11.940;2023-04-30T08:19:54;97261.66;;;20.37;46.67
36598;BME280;22607;49.550;11.940;2023-04-30T08:22:22;97258.34;;;20.84;42.14
36598;BME280;22607;49.550;11.940;2023-04-30T08:24:49;97267.50;;;20.46;42.82
36598;BME280;22607;49.550;11.940;2023-04-30T08:27:15;97243.84;;;20.50;41.15
36598;BME280;22607;49.550;11.940;2023-04-30T08:29:42;97254.72;;;20.17;41.86
36598;BME280;22607;49.550;11.940;2023-04-30T08:32:09;97257.13;;;19.19;42.86
36598;BME280;22607;49.550;11.940;2023-04-30T08:34:36;97249.72;;;19.21;43.35
36598;BME280;22607;49.550;11.940;2023-04-30T08:37:03;97259.78;;;18.86;42.86
36598;BME280;22607;49.550;11.940;2023-04-30T08:39:29;97254.56;;;18.66;43.75
36598;BME280;22607;49.550;11.940;2023-04-30T08:41:56;97244.31;;;19.02;41.80
36598;BME280;22607;49.550;11.940;2023-04-30T08:44:26;97258.06;;;18.99;42.46
36598;BME280;22607;49.550;11.940;2023-04-30T08:46:55;97250.28;;;18.26;42.81
36598;BME280;22607;49.550;11.940;2023-04-30T08:49:22;97249.88;;;18.29;43.62
36598;BME280;22607;49.550;11.940;2023-04-30T08:51:50;97253.03;;;18.52;42.50
36598;BME280;22607;49.550;11.940;2023-04-30T08:54:18;97249.81;;;19.07;43.31
36598;BME280;22607;49.550;11.940;2023-04-30T08:56:45;97240.56;;;19.35;42.70
36598;BME280;22607;49.550;11.940;2023-04-30T08:59:12;97248.31;;;18.01;41.17
36598;BME280;22607;49.550;11.940;2023-04-30T09:01:40;97250.06;;;18.99;41.28
36598;BME280;22607;49.550;11.940;2023-04-30T09:04:07;97247.81;;;18.70;41.37
36598;BME280;22607;49.550;11.940;2023-04-30T09:06:33;97250.66;;;17.77;44.65
36598;BME280;22607;49.550;11.940;2023-04-30T09:09:14;97252.47;;;17.83;39.85
36598;BME280;22607;49.550;11.940;2023-04-30T09:11:41;97254.09;;;17.84;40.43
36598;BME280;22607;49.550;11.940;2023-04-30T09:14:08;97249.69;;;17.24;41.31
36598;BME280;22607;49.550;11.940;2023-04-30T09:16:46;97256.00;;;17.30;42.31
36598;BME280;22607;49.550;11.940;2023-04-30T09:19:25;97248.53;;;18.00;39.60
36598;BME280;22607;49.550;11.940;2023-04-30T09:21:52;97251.53;;;18.62;38.53
36598;BME280;22607;49.550;11.940;2023-04-30T09:24:19;97236.69;;;19.12;37.70
36598;BME280;22607;49.550;11.940;2023-04-30T09:26:46;97230.41;;;19.51;38.68
36598;BME280;22607;49.550;11.940;2023-04-30T09:29:13;97232.13;;;19.64;42.24
36598;BME280;22607;49.550;11.940;2023-04-30T09:31:45;97221.47;;;19.64;40.79
36598;BME280;22607;49.550;11.940;2023-04-30T09:34:12;97242.06;;;18.34;43.06
36598;BME280;22607;49.550;11.940;2023-04-30T09:36:52;97238.28;;;18.10;43.00
36598;BME280;22607;49.550;11.940;2023-04-30T09:39:22;97224.16;;;19.38;39.48
36598;BME280;22607;49.550;11.940;2023-04-30T09:41:49;97230.44;;;19.70;38.17
36598;BME280;22607;49.550;11.940;2023-04-30T09:44:27;97231.78;;;19.98;39.23
36598;BME280;22607;49.550;11.940;2023-04-30T09:46:56;97227.47;;;20.15;39.01
36598;BME280;22607;49.550;11.940;2023-04-30T09:49:23;97222.75;;;20.60;38.55
36598;BME280;22607;49.550;11.940;2023-04-30T09:51:57;97221.56;;;20.44;38.49
36598;BME280;22607;49.550;11.940;2023-04-30T09:54:28;97226.50;;;19.91;39.88
36598;BME280;22607;49.550;11.940;2023-04-30T09:56:56;97227.00;;;20.18;38.62
36598;BME280;22607;49.550;11.940;2023-04-30T09:59:33;97225.53;;;19.22;38.22
36598;BME280;22607;49.550;11.940;2023-04-30T10:02:05;97214.06;;;19.47;39.06
36598;BME280;22607;49.550;11.940;2023-04-30T10:04:34;97220.97;;;19.74;39.46
36598;BME280;22607;49.550;11.940;2023-04-30T10:07:12;97226.28;;;19.74;40.03
36598;BME280;22607;49.550;11.940;2023-04-30T10:09:48;97220.19;;;20.53;39.45
36598;BME280;22607;49.550;11.940;2023-04-30T10:12:19;97218.75;;;20.81;38.03
36598;BME280;22607;49.550;11.940;2023-04-30T10:15:03;97217.69;;;21.25;38.14
36598;BME280;22607;49.550;11.940;2023-04-30T10:17:32;97211.75;;;21.11;38.02
36598;BME280;22607;49.550;11.940;2023-04-30T10:20:03;97210.41;;;20.35;38.46
36598;BME280;22607;49.550;11.940;2023-04-30T10:22:35;97212.81;;;19.68;39.97
36598;BME280;22607;49.550;11.940;2023-04-30T10:25:02;97223.25;;;19.26;42.57
36598;BME280;22607;49.550;11.940;2023-04-30T10:27:29;97211.63;;;19.46;42.31
36598;BME280;22607;49.550;11.940;2023-04-30T10:29:58;97218.41;;;19.41;41.50
36598;BME280;22607;49.550;11.940;2023-04-30T10:32:37;97209.94;;;19.26;42.10
36598;BME280;22607;49.550;11.940;2023-04-30T10:35:24;97200.06;;;19.52;39.32
36598;BME280;22607;49.550;11.940;2023-04-30T10:38:12;97196.38;;;20.09;38.55
36598;BME280;22607;49.550;11.940;2023-04-30T10:40:45;97181.63;;;20.37;39.71
36598;BME280;22607;49.550;11.940;2023-04-30T10:43:13;97183.38;;;20.01;38.47
36598;BME280;22607;49.550;11.940;2023-04-30T10:45:43;97184.81;;;20.15;38.22
36598;BME280;22607;49.550;11.940;2023-04-30T10:48:10;97187.78;;;20.38;38.88
36598;BME280;22607;49.550;11.940;2023-04-30T10:50:43;97175.66;;;19.92;39.07
36598;BME280;22607;49.550;11.940;2023-04-30T10:53:13;97180.84;;;19.68;38.02
36598;BME280;22607;49.550;11.940;2023-04-30T10:55:58;97167.66;;;20.11;37.63
36598;BME280;22607;49.550;11.940;2023-04-30T10:58:29;97173.59;;;20.80;38.67
36598;BME280;22607;49.550;11.940;2023-04-30T11:03:37;97176.97;;;20.20;37.98
36598;BME280;22607;49.550;11.940;2023-04-30T11:06:15;97166.97;;;20.70;37.12
36598;BME280;22607;49.550;11.940;2023-04-30T11:08:46;97158.38;;;20.56;36.15
36598;BME280;22607;49.550;11.940;2023-04-30T11:11:22;97159.13;;;20.33;38.96
36598;BME280;22607;49.550;11.940;2023-04-30T11:13:59;97164.41;;;20.64;35.85
36598;BME280;22607;49.550;11.940;2023-04-30T11:16:30;97158.16;;;20.15;35.14
36598;BME280;22607;49.550;11.940;2023-04-30T11:19:09;97160.72;;;20.53;36.80
36598;BME280;22607;49.550;11.940;2023-04-30T11:21:41;97161.88;;;19.58;37.02
36598;BME280;22607;49.550;11.940;2023-04-30T11:24:07;97157.09;;;19.48;38.01
36598;BME280;22607;49.550;11.940;2023-04-30T11:27:11;97158.75;;;19.24;39.11
36598;BME280;22607;49.550;11.940;2023-04-30T11:29:38;97172.56;;;18.88;40.49
36598;BME280;22607;49.550;11.940;2023-04-30T11:32:06;97159.38;;;19.00;38.91
36598;BME280;22607;49.550;11.940;2023-04-30T11:34:33;97162.50;;;19.60;39.67
36598;BME280;22607;49.550;11.940;2023-04-30T11:37:00;97148.41;;;20.21;37.26
36598;BME280;22607;49.550;11.940;2023-04-30T11:39:28;97155.41;;;20.22;37.74
36598;BME280;22607;49.550;11.940;2023-04-30T11:41:56;97146.13;;;20.25;36.41
36598;BME280;22607;49.550;11.940;2023-04-30T11:44:26;97138.44;;;20.16;38.55
36598;BME280;22607;49.550;11.940;2023-04-30T11:46:53;97133.44;;;20.51;37.08
36598;BME280;22607;49.550;11.940;2023-04-30T11:49:20;97131.44;;;21.01;39.16
36598;BME280;22607;49.550;11.940;2023-04-30T11:51:50;97129.63;;;20.82;35.06
36598;BME280;22607;49.550;11.940;2023-04-30T11:54:17;97134.47;;;20.07;36.41
36598;BME280;22607;49.550;11.940;2023-04-30T11:56:47;97125.75;;;19.81;36.68
36598;BME280;22607;49.550;11.940;2023-04-30T11:59:15;97134.81;;;19.42;37.90
36598;BME280;22607;49.550;11.940;2023-04-30T12:01:42;97139.16;;;19.37;37.93
36598;BME280;22607;49.550;11.940;2023-04-30T12:04:09;97135.84;;;19.23;38.20
36598;BME280;22607;49.550;11.940;2023-04-30T12:06:36;97138.06;;;19.45;37.99
36598;BME280;22607;49.550;11.940;2023-04-30T12:09:03;97130.00;;;19.33;37.81
36598;BME280;22607;49.550;11.940;2023-04-30T12:11:33;97132.63;;;19.14;39.94
36598;BME280;22607;49.550;11.940;2023-04-30T12:16:47;97122.75;;;20.51;36.92
36598;BME280;22607;49.550;11.940;2023-04-30T12:19:18;97115.16;;;20.24;35.10
36598;BME280;22607;49.550;11.940;2023-04-30T12:21:46;97122.69;;;19.96;35.67
36598;BME280;22607;49.550;11.940;2023-04-30T12:24:15;97127.91;;;19.72;37.29
36598;BME280;22607;49.550;11.940;2023-04-30T12:26:42;97124.53;;;19.46;36.87
36598;BME280;22607;49.550;11.940;2023-04-30T12:29:16;97124.97;;;19.43;37.56
36598;BME280;22607;49.550;11.940;2023-04-30T12:31:44;97115.97;;;19.93;35.59
36598;BME280;22607;49.550;11.940;2023-04-30T12:34:14;97115.09;;;19.81;36.11
36598;BME280;22607;49.550;11.940;2023-04-30T12:36:41;97110.41;;;19.64;37.31
36598;BME280;22607;49.550;11.940;2023-04-30T12:41:43;97106.63;;;20.03;35.91
36598;BME280;22607;49.550;11.940;2023-04-30T12:44:20;97114.75;;;19.77;38.48
36598;BME280;22607;49.550;11.940;2023-04-30T12:46:48;97096.03;;;20.27;36.86
36598;BME280;22607;49.550;11.940;2023-04-30T12:49:26;97107.22;;;20.05;35.16
36598;BME280;22607;49.550;11.940;2023-04-30T12:52:10;97091.06;;;20.42;34.13
36598;BME280;22607;49.550;11.940;2023-04-30T12:54:38;97091.56;;;20.39;35.90
36598;BME280;22607;49.550;11.940;2023-04-30T12:57:07;97095.63;;;20.42;34.73
36598;BME280;22607;49.550;11.940;2023-04-30T12:59:39;97101.47;;;20.20;35.55
36598;BME280;22607;49.550;11.940;2023-04-30T13:02:18;97090.84;;;20.44;35.98
36598;BME280;22607;49.550;11.940;2023-04-30T13:04:49;97097.47;;;20.41;36.76
36598;BME280;22607;49.550;11.940;2023-04-30T13:07:16;97092.03;;;20.48;36.05
36598;BME280;22607;49.550;11.940;2023-04-30T13:09:44;97086.44;;;20.38;34.25
36598;BME280;22607;49.550;11.940;2023-04-30T13:12:10;97087.88;;;20.64;33.71
36598;BME280;22607;49.550;11.940;2023-04-30T13:14:37;97079.97;;;20.69;34.83